Time;durP1;ratioP1;P1;durP2;ratioP2;P2;SDS_P1;SDS_P2;PMS_P1;PMS_P2;Temp;Humidity;BMP_temperature;BMP_pressure;BME280_temperature;BME280_humidity;BME280_pressure;Samples;Min_cycle;Max_cycle;Signal;HPM_P1;HPM_P2
2023/04/27 00:02:03;;;;;;;;;;;;;;;;;;5060472;28;19917;-74
2023/04/27 00:04:50;;;;;;;;;;;;;;;;;;5044908;28;19920;-75
2023/04/27 00:07:36;;;;;;;;;;;;;;;;;;5063958;28;19920;-75
2023/04/27 00:10:23;;;;;;;;;;;;;;;;;;5058970;28;19921;-74
2023/04/27 00:13:09;;;;;;;;;;;;;;;;;;5063133;28;19922;-74
2023/04/27 00:15:56;;;;;;;;;;;;;;;;;;5043830;28;19920;-75
2023/04/27 00:18:42;;;;;;;;;;;;;;;;;;5062837;28;19917;-74
2023/04/27 00:21:29;;;;;;;;;;;;;;;;;;5061566;28;19921;-75
2023/04/27 00:24:15;;;;;;;;;;;;;;;;;;5063407;28;19932;-75
2023/04/27 00:27:02;;;;;;;;;;;;;;;;;;5043386;28;19921;-74
2023/04/27 00:29:48;;;;;;;;;;;;;;;;;;5057236;28;19924;-75
2023/04/27 00:32:35;;;;;;;;;;;;;;;;;;5066012;28;19921;-75
2023/04/27 00:35:21;;;;;;;;;;;;;;;;;;5060308;28;19920;-74
2023/04/27 00:38:08;;;;;;;;;;;;;;;;;;5059109;28;19924;-74
2023/04/27 00:40:54;;;;;;;;;;;;;;;;;;5063035;28;19916;-74
2023/04/27 00:43:41;;;;;;;;;;;;;;;;;;5064761;28;19917;-74
2023/04/27 00:46:27;;;;;;;;;;;;;;;;;;5061888;28;19924;-74
2023/04/27 00:49:14;;;;;;;;;;;;;;;;;;5047441;28;20577;-76
2023/04/27 00:52:00;;;;;;;;;;;;;;;;;;5061478;28;19928;-74
2023/04/27 00:54:47;;;;;;;;;;;;;;;;;;5062039;28;20606;-75
2023/04/27 00:57:33;;;;;;;;;;;;;;;;;;5057985;28;19931;-75
2023/04/27 01:00:20;;;;;;;;;;;;;;;;;;5063017;28;19928;-75
2023/04/27 01:03:06;;;;;;;;;;;;;;;;;;5062623;28;19917;-75
2023/04/27 01:05:53;;;;;;;;;;;;;;;;;;5060532;28;19917;-75
2023/04/27 01:08:40;;;;;;;;;;;;;;;;;;5060968;28;19916;-76
2023/04/27 01:11:26;;;;;;;;;;;;;;;;;;5058649;28;19916;-74
2023/04/27 01:14:13;;;;;;;;;;;;;;;;;;5061998;28;20371;-74
2023/04/27 01:16:59;;;;;;;;;;;;;;;;;;5047998;28;19928;-74
2023/04/27 01:19:46;;;;;;;;;;;;;;;;;;5061073;28;19920;-75
2023/04/27 01:22:32;;;;;;;;;;;;;;;;;;5068273;28;19916;-75
2023/04/27 01:25:19;;;;;;;;;;;;;;;;;;5056839;28;19928;-75
2023/04/27 01:28:05;;;;;;;;;;;;;;;;;;5056650;28;20320;-75
2023/04/27 01:30:52;;;;;;;;;;;;;;;;;;5052607;28;19920;-75
2023/04/27 01:33:38;;;;;;;;;;;;;;;;;;5065069;28;19924;-74
2023/04/27 01:36:26;;;;;;;;;;;;;;;;;;5062294;28;19936;-75
2023/04/27 01:39:12;;;;;;;;;;;;;;;;;;5064535;28;19924;-75
2023/04/27 01:41:59;;;;;;;;;;;;;;;;;;5062649;28;20565;-75
2023/04/27 01:44:46;;;;;;;;;;;;;;;;;;5072744;28;20292;-74
2023/04/27 01:47:32;;;;;;;;;;;;;;;;;;5051595;28;20005;-75
2023/04/27 01:50:19;;;;;;;;;;;;;;;;;;5057190;28;19995;-74
2023/04/27 01:53:05;;;;;;;;;;;;;;;;;;5064772;28;19924;-75
2023/04/27 01:55:52;;;;;;;;;;;;;;;;;;5069901;28;19920;-75
2023/04/27 01:58:38;;;;;;;;;;;;;;;;;;5068062;28;19931;-75
2023/04/27 02:01:25;;;;;;;;;;;;;;;;;;5061664;28;19916;-74
2023/04/27 02:04:11;;;;;;;;;;;;;;;;;;5047075;28;19927;-75
2023/04/27 02:06:57;;;;;;;;;;;;;;;;;;5046140;28;19931;-75
2023/04/27 02:09:44;;;;;;;;;;;;;;;;;;5062283;28;19917;-74
2023/04/27 02:12:30;;;;;;;;;;;;;;;;;;5062977;28;20384;-75
2023/04/27 02:15:17;;;;;;;;;;;;;;;;;;5061946;28;19916;-74
2023/04/27 02:18:03;;;;;;;;;;;;;;;;;;5076959;28;19935;-74
2023/04/27 02:20:50;;;;;;;;;;;;;;;;;;5059661;28;19948;-74
2023/04/27 02:23:36;;;;;;;;;;;;;;;;;;5063543;28;19917;-74
2023/04/27 02:26:28;;;;;;;;;;;;;;;;;;5070264;28;19939;-74
2023/04/27 02:29:15;;;;;;;;;;;;;;;;;;5056711;28;19932;-74
2023/04/27 02:32:02;;;;;;;;;;;;;;;;;;5066493;28;19920;-73
2023/04/27 02:34:48;;;;;;;;;;;;;;;;;;5047821;28;19928;-74
2023/04/27 02:37:35;;;;;;;;;;;;;;;;;;5064147;28;19936;-74
2023/04/27 02:40:22;;;;;;;;;;;;;;;;;;5063680;28;19920;-75
2023/04/27 02:43:08;;;;;;;;;;;;;;;;;;5064048;28;20364;-74
2023/04/27 02:45:55;;;;;;;;;;;;;;;;;;5059579;28;19917;-74
2023/04/27 02:48:41;;;;;;;;;;;;;;;;;;5062876;28;19913;-74
2023/04/27 02:51:28;;;;;;;;;;;;;;;;;;5044050;28;19920;-76
2023/04/27 02:54:15;;;;;;;;;;;;;;;;;;5060946;28;20273;-75
2023/04/27 02:57:01;;;;;;;;;;;;;;;;;;5062699;28;19925;-74
2023/04/27 02:59:47;;;;;;;;;;;;;;;;;;5065000;28;20364;-74
2023/04/27 03:02:34;;;;;;;;;;;;;;;;;;5062631;28;20032;-74
2023/04/27 03:05:21;;;;;;;;;;;;;;;;;;5064287;28;19928;-74
2023/04/27 03:08:07;;;;;;;;;;;;;;;;;;5061360;28;19963;-75
2023/04/27 03:10:53;;;;;;;;;;;;;;;;;;5061851;28;19920;-74
2023/04/27 03:13:40;;;;;;;;;;;;;;;;;;5070725;28;19917;-75
2023/04/27 03:16:27;;;;;;;;;;;;;;;;;;5063607;28;19924;-79
2023/04/27 03:19:13;;;;;;;;;;;;;;;;;;5063898;28;19916;-74
2023/04/27 03:22:00;;;;;;;;;;;;;;;;;;5063964;28;19924;-74
2023/04/27 03:24:46;;;;;;;;;;;;;;;;;;5065785;28;19912;-74
2023/04/27 03:27:33;;;;;;;;;;;;;;;;;;5061157;28;19928;-75
2023/04/27 03:30:19;;;;;;;;;;;;;;;;;;5062733;28;20272;-74
2023/04/27 03:33:06;;;;;;;;;;;;;;;;;;5058791;28;19939;-75
2023/04/27 03:35:52;;;;;;;;;;;;;;;;;;5063132;28;19916;-76
2023/04/27 03:38:39;;;;;;;;;;;;;;;;;;5054117;28;19928;-76
2023/04/27 03:41:25;;;;;;;;;;;;;;;;;;5059918;28;20404;-75
2023/04/27 03:44:12;;;;;;;;;;;;;;;;;;5056049;28;20487;-75
2023/04/27 03:46:58;;;;;;;;;;;;;;;;;;5054879;28;20391;-76
2023/04/27 03:49:47;;;;;;;;;;;;;;;;;;5056560;28;20124;-75
2023/04/27 03:52:33;;;;;;;;;;;;;;;;;;5063520;28;20626;-76
2023/04/27 03:55:20;;;;;;;;;;;;;;;;;;5052725;28;19923;-75
2023/04/27 03:58:06;;;;;;;;;;;;;;;;;;5062106;28;19932;-75
2023/04/27 04:00:53;;;;;;;;;;;;;;;;;;5060576;28;20440;-75
2023/04/27 04:03:40;;;;;;;;;;;;;;;;;;5071765;28;19913;-76
2023/04/27 04:06:26;;;;;;;;;;;;;;;;;;5064062;28;20411;-76
2023/04/27 04:09:14;;;;;;;;;;;;;;;;;;5062164;28;19913;-76
2023/04/27 04:12:00;;;;;;;;;;;;;;;;;;5043267;28;19916;-75
2023/04/27 04:14:47;;;;;;;;;;;;;;;;;;5060616;28;19959;-76
2023/04/27 04:17:34;;;;;;;;;;;;;;;;;;5059110;28;20388;-77
2023/04/27 04:20:21;;;;;;;;;;;;;;;;;;5053041;28;19935;-76
2023/04/27 04:23:07;;;;;;;;;;;;;;;;;;5060679;28;19921;-76
2023/04/27 04:25:55;;;;;;;;;;;;;;;;;;5061919;28;19912;-76
2023/04/27 04:28:42;;;;;;;;;;;;;;;;;;5059307;28;19923;-77
2023/04/27 04:31:29;;;;;;;;;;;;;;;;;;5060418;28;19927;-77
2023/04/27 04:34:16;;;;;;;;;;;;;;;;;;5074136;28;19939;-76
2023/04/27 04:37:03;;;;;;;;;;;;;;;;;;5079906;28;20583;-76
2023/04/27 04:39:49;;;;;;;;;;;;;;;;;;5068913;28;19916;-74
2023/04/27 04:42:39;;;;;;;;;;;;;;;;;;5088645;28;19927;-74
2023/04/27 04:45:25;;;;;;;;;;;;;;;;;;5081393;28;19927;-74
2023/04/27 04:48:12;;;;;;;;;;;;;;;;;;5081340;28;19928;-75
2023/04/27 04:50:58;;;;;;;;;;;;;;;;;;5077610;28;20647;-74
2023/04/27 04:53:45;;;;;;;;;;;;;;;;;;5080557;28;19916;-74
2023/04/27 04:56:32;;;;;;;;;;;;;;;;;;5079088;28;19931;-75
2023/04/27 04:59:18;;;;;;;;;;;;;;;;;;5079864;28;19928;-74
2023/04/27 05:02:05;;;;;;;;;;;;;;;;;;5078979;28;19924;-74
2023/04/27 05:04:51;;;;;;;;;;;;;;;;;;5083512;28;19912;-75
2023/04/27 05:07:38;;;;;;;;;;;;;;;;;;5080252;28;19931;-75
2023/04/27 05:10:24;;;;;;;;;;;;;;;;;;5078865;28;19931;-74
2023/04/27 05:13:11;;;;;;;;;;;;;;;;;;5080820;28;20360;-75
2023/04/27 05:15:57;;;;;;;;;;;;;;;;;;5100466;28;19923;-76
2023/04/27 05:18:44;;;;;;;;;;;;;;;;;;5100128;28;19935;-74
2023/04/27 05:21:30;;;;;;;;;;;;;;;;;;5099261;28;19927;-74
2023/04/27 05:24:17;;;;;;;;;;;;;;;;;;5097586;28;19924;-74
2023/04/27 05:27:03;;;;;;;;;;;;;;;;;;5080496;28;20228;-75
2023/04/27 05:29:50;;;;;;;;;;;;;;;;;;5083144;28;19920;-75
2023/04/27 05:32:37;;;;;;;;;;;;;;;;;;5077616;28;19927;-75
2023/04/27 05:35:23;;;;;;;;;;;;;;;;;;5081286;28;19922;-74
2023/04/27 05:38:10;;;;;;;;;;;;;;;;;;5079953;28;19936;-74
2023/04/27 05:40:57;;;;;;;;;;;;;;;;;;5083078;28;19919;-74
2023/04/27 05:43:43;;;;;;;;;;;;;;;;;;5084973;28;19920;-74
2023/04/27 05:46:30;;;;;;;;;;;;;;;;;;5080809;28;19916;-75
2023/04/27 05:49:17;;;;;;;;;;;;;;;;;;5082350;28;19930;-74
2023/04/27 05:52:03;;;;;;;;;;;;;;;;;;5067076;28;19920;-74
2023/04/27 05:54:50;;;;;;;;;;;;;;;;;;5085219;28;19927;-74
2023/04/27 05:57:36;;;;;;;;;;;;;;;;;;5084277;28;19932;-74
2023/04/27 06:00:23;;;;;;;;;;;;;;;;;;5081601;28;19916;-74
2023/04/27 06:03:10;;;;;;;;;;;;;;;;;;5081486;28;19924;-74
2023/04/27 06:05:56;;;;;;;;;;;;;;;;;;5068607;28;20295;-74
2023/04/27 06:08:43;;;;;;;;;;;;;;;;;;5081754;28;19930;-74
2023/04/27 06:11:29;;;;;;;;;;;;;;;;;;5081581;28;19923;-76
2023/04/27 06:14:16;;;;;;;;;;;;;;;;;;5109325;27;20354;-75
2023/04/27 06:17:02;;;;;;;;;;;;;;;;;;5083226;28;19990;-74
2023/04/27 06:19:50;;;;;;;;;;;;;;;;;;5082184;28;20829;-74
2023/04/27 06:22:36;;;;;;;;;;;;;;;;;;5080154;28;19920;-74
2023/04/27 06:25:23;;;;;;;;;;;;;;;;;;5083036;28;19926;-73
2023/04/27 06:28:10;;;;;;;;;;;;;;;;;;5101521;28;19920;-73
2023/04/27 06:30:56;;;;;;;;;;;;;;;;;;5096160;27;19916;-74
2023/04/27 06:33:43;;;;;;;;;;;;;;;;;;5084454;28;19950;-74
2023/04/27 06:36:30;;;;;;;;;;;;;;;;;;5093987;28;19930;-74
2023/04/27 06:39:16;;;;;;;;;;;;;;;;;;5080846;28;19928;-74
2023/04/27 06:42:03;;;;;;;;;;;;;;;;;;5096814;28;20364;-75
2023/04/27 06:44:49;;;;;;;;;;;;;;;;;;5093071;28;19916;-75
2023/04/27 06:47:36;;;;;;;;;;;;;;;;;;5081368;28;19927;-76
2023/04/27 06:50:22;;;;;;;;;;;;;;;;;;5083201;28;19920;-76
2023/04/27 06:53:09;;;;;;;;;;;;;;;;;;5083231;28;19927;-75
2023/04/27 06:55:55;;;;;;;;;;;;;;;;;;5089998;28;19916;-75
2023/04/27 06:58:42;;;;;;;;;;;;;;;;;;5076552;28;19951;-75
2023/04/27 07:01:28;;;;;;;;;;;;;;;;;;5081255;28;19932;-76
2023/04/27 07:04:15;;;;;;;;;;;;;;;;;;5082614;28;19927;-75
2023/04/27 07:07:01;;;;;;;;;;;;;;;;;;5093300;28;19920;-75
2023/04/27 07:09:48;;;;;;;;;;;;;;;;;;5080208;28;19935;-75
2023/04/27 07:12:34;;;;;;;;;;;;;;;;;;5084396;28;19935;-75
2023/04/27 07:15:21;;;;;;;;;;;;;;;;;;5081989;28;19927;-75
2023/04/27 07:18:07;;;;;;;;;;;;;;;;;;5077544;28;19932;-75
2023/04/27 07:20:54;;;;;;;;;;;;;;;;;;5091101;28;19912;-75
2023/04/27 07:23:41;;;;;;;;;;;;;;;;;;5096076;28;19916;-75
2023/04/27 07:26:28;;;;;;;;;;;;;;;;;;5083995;28;19923;-77
2023/04/27 07:29:16;;;;;;;;;;;;;;;;;;5081642;28;20379;-75
2023/04/27 07:32:02;;;;;;;;;;;;;;;;;;5100014;28;19923;-75
2023/04/27 07:34:49;;;;;;;;;;;;;;;;;;5085892;28;19927;-75
2023/04/27 07:37:39;;;;;;;;;;;;;;;;;;5097691;28;19938;-76
2023/04/27 07:40:26;;;;;;;;;;;;;;;;;;5082368;28;20751;-75
2023/04/27 07:43:12;;;;;;;;;;;;;;;;;;5097342;28;19920;-75
2023/04/27 07:45:58;;;;;;;;;;;;;;;;;;5081117;28;19943;-75
2023/04/27 07:48:46;;;;;;;;;;;;;;;;;;5067299;28;19916;-75
2023/04/27 07:51:33;;;;;;;;;;;;;;;;;;5081675;28;19920;-75
2023/04/27 07:54:19;;;;;;;;;;;;;;;;;;5075520;28;19927;-75
2023/04/27 07:57:06;;;;;;;;;;;;;;;;;;5083199;28;19929;-75
2023/04/27 07:59:52;;;;;;;;;;;;;;;;;;5082289;28;19920;-75
2023/04/27 08:02:39;;;;;;;;;;;;;;;;;;5077566;28;19944;-75
2023/04/27 08:05:25;;;;;;;;;;;;;;;;;;5075708;28;19934;-75
2023/04/27 08:08:12;;;;;;;;;;;;;;;;;;5073913;28;19927;-75
2023/04/27 08:10:58;;;;;;;;;;;;;;;;;;5099150;28;19947;-76
2023/04/27 08:13:45;;;;;;;;;;;;;;;;;;5100558;28;20282;-75
2023/04/27 08:16:31;;;;;;;;;;;;;;;;;;5099563;28;19920;-76
2023/04/27 08:19:18;;;;;;;;;;;;;;;;;;5101638;28;19958;-75
2023/04/27 08:22:04;;;;;;;;;;;;;;;;;;5092409;28;19990;-75
2023/04/27 08:24:51;;;;;;;;;;;;;;;;;;5099807;28;19975;-75
2023/04/27 08:27:37;;;;;;;;;;;;;;;;;;5102012;28;19924;-74
2023/04/27 08:30:24;;;;;;;;;;;;;;;;;;5100522;28;19919;-77
2023/04/27 08:33:12;;;;;;;;;;;;;;;;;;5079189;28;20363;-74
2023/04/27 08:35:58;;;;;;;;;;;;;;;;;;5077873;28;19920;-74
2023/04/27 08:38:45;;;;;;;;;;;;;;;;;;5079528;28;19928;-74
2023/04/27 08:41:31;;;;;;;;;;;;;;;;;;5080877;28;19920;-74
2023/04/27 08:44:18;;;;;;;;;;;;;;;;;;5076642;28;19931;-73
2023/04/27 08:47:04;;;;;;;;;;;;;;;;;;5078809;28;19920;-74
2023/04/27 08:49:51;;;;;;;;;;;;;;;;;;5074706;28;19923;-75
2023/04/27 08:52:37;;;;;;;;;;;;;;;;;;5077222;28;19930;-75
2023/04/27 08:55:24;;;;;;;;;;;;;;;;;;5080330;28;19920;-75
2023/04/27 08:58:10;;;;;;;;;;;;;;;;;;5077396;28;19929;-74
2023/04/27 09:00:57;;;;;;;;;;;;;;;;;;5072150;28;20406;-74
2023/04/27 09:03:45;;;;;;;;;;;;;;;;;;5077885;28;19912;-75
2023/04/27 09:06:32;;;;;;;;;;;;;;;;;;5071824;28;19927;-75
2023/04/27 09:09:18;;;;;;;;;;;;;;;;;;5079751;28;19924;-75
2023/04/27 09:12:04;;;;;;;;;;;;;;;;;;5076897;28;19923;-75
2023/04/27 09:14:51;;;;;;;;;;;;;;;;;;5075414;28;19920;-75
2023/04/27 09:17:37;;;;;;;;;;;;;;;;;;5081286;28;19932;-75
2023/04/27 09:20:25;;;;;;;;;;;;;;;;;;5079926;28;19923;-74
2023/04/27 09:23:12;;;;;;;;;;;;;;;;;;5080291;28;19920;-73
2023/04/27 09:25:58;;;;;;;;;;;;;;;;;;5082110;28;20376;-74
2023/04/27 09:28:45;;;;;;;;;;;;;;;;;;5082592;28;19923;-74
2023/04/27 09:31:31;;;;;;;;;;;;;;;;;;5083303;28;19931;-75
2023/04/27 09:34:18;;;;;;;;;;;;;;;;;;5082200;28;19943;-74
2023/04/27 09:37:04;;;;;;;;;;;;;;;;;;5083637;28;19920;-74
2023/04/27 09:39:51;;;;;;;;;;;;;;;;;;5084396;28;19924;-73
2023/04/27 09:42:37;;;;;;;;;;;;;;;;;;5084180;28;19930;-74
2023/04/27 09:45:24;;;;;;;;;;;;;;;;;;5084986;28;19927;-76
2023/04/27 09:48:11;;;;;;;;;;;;;;;;;;5082658;28;20398;-75
2023/04/27 09:50:57;;;;;;;;;;;;;;;;;;5085015;28;19920;-75
2023/04/27 09:53:44;;;;;;;;;;;;;;;;;;5084401;28;19924;-75
2023/04/27 09:56:30;;;;;;;;;;;;;;;;;;5082655;28;19916;-75
2023/04/27 09:59:17;;;;;;;;;;;;;;;;;;5084013;28;19936;-75
2023/04/27 10:02:03;;;;;;;;;;;;;;;;;;5081122;28;20281;-75
2023/04/27 10:04:50;;;;;;;;;;;;;;;;;;5068781;28;19927;-75
2023/04/27 10:07:36;;;;;;;;;;;;;;;;;;5081755;28;19923;-75
2023/04/27 10:10:23;;;;;;;;;;;;;;;;;;5082544;28;19945;-75
2023/04/27 10:13:09;;;;;;;;;;;;;;;;;;5084609;28;19927;-77
2023/04/27 10:15:56;;;;;;;;;;;;;;;;;;5082369;28;20703;-76
2023/04/27 10:18:42;;;;;;;;;;;;;;;;;;5075840;28;20590;-77
2023/04/27 10:21:29;;;;;;;;;;;;;;;;;;5067573;28;19941;-77
2023/04/27 10:24:16;;;;;;;;;;;;;;;;;;5084465;28;20286;-77
2023/04/27 10:27:04;;;;;;;;;;;;;;;;;;5082835;28;19927;-76
2023/04/27 10:29:50;;;;;;;;;;;;;;;;;;5080139;28;19920;-76
2023/04/27 10:32:37;;;;;;;;;;;;;;;;;;5084219;28;19928;-81
2023/04/27 10:35:23;;;;;;;;;;;;;;;;;;5081681;28;20372;-77
2023/04/27 10:38:10;;;;;;;;;;;;;;;;;;5079813;28;19935;-76
2023/04/27 10:40:56;;;;;;;;;;;;;;;;;;5082229;28;19934;-75
2023/04/27 10:43:44;;;;;;;;;;;;;;;;;;5081416;28;20366;-76
2023/04/27 10:46:30;;;;;;;;;;;;;;;;;;5080179;28;19924;-76
2023/04/27 10:49:17;;;;;;;;;;;;;;;;;;5081595;28;19923;-75
2023/04/27 10:52:03;;;;;;;;;;;;;;;;;;5077951;28;19927;-76
2023/04/27 10:54:50;;;;;;;;;;;;;;;;;;5082636;28;19920;-76
2023/04/27 10:57:36;;;;;;;;;;;;;;;;;;5081978;28;19924;-80
2023/04/27 11:00:24;;;;;;;;;;;;;;;;;;5082036;28;19924;-75
2023/04/27 11:03:10;;;;;;;;;;;;;;;;;;5061615;28;19918;-77
2023/04/27 11:05:57;;;;;;;;;;;;;;;;;;5068496;28;19927;-75
2023/04/27 11:08:44;;;;;;;;;;;;;;;;;;5066049;28;19924;-75
2023/04/27 11:11:30;;;;;;;;;;;;;;;;;;5076563;28;20379;-75
2023/04/27 11:14:17;;;;;;;;;;;;;;;;;;5061757;28;19920;-76
2023/04/27 11:17:03;;;;;;;;;;;;;;;;;;5080910;28;20350;-75
2023/04/27 11:19:50;;;;;;;;;;;;;;;;;;5073802;28;19920;-75
2023/04/27 11:22:36;;;;;;;;;;;;;;;;;;5079127;28;19920;-75
2023/04/27 11:25:23;;;;;;;;;;;;;;;;;;5087261;28;19923;-75
2023/04/27 11:28:09;;;;;;;;;;;;;;;;;;5081033;28;19947;-75
2023/04/27 11:30:56;;;;;;;;;;;;;;;;;;5080339;28;19962;-75
2023/04/27 11:33:42;;;;;;;;;;;;;;;;;;5067565;28;19928;-75
2023/04/27 11:36:29;;;;;;;;;;;;;;;;;;5062653;28;20448;-75
2023/04/27 11:39:17;;;;;;;;;;;;;;;;;;5073256;28;19937;-75
2023/04/27 11:42:03;;;;;;;;;;;;;;;;;;5062673;28;19920;-75
2023/04/27 11:44:50;;;;;;;;;;;;;;;;;;5048334;28;19923;-75
2023/04/27 11:47:36;;;;;;;;;;;;;;;;;;5043542;28;19939;-76
2023/04/27 11:50:23;;;;;;;;;;;;;;;;;;5048832;28;19916;-75
2023/04/27 11:53:10;;;;;;;;;;;;;;;;;;5061374;28;19940;-74
2023/04/27 11:55:57;;;;;;;;;;;;;;;;;;5062009;28;19920;-75
2023/04/27 11:58:43;;;;;;;;;;;;;;;;;;5062351;28;19940;-78
2023/04/27 12:01:30;;;;;;;;;;;;;;;;;;5059199;28;19931;-76
2023/04/27 12:04:17;;;;;;;;;;;;;;;;;;5060787;28;19944;-76
2023/04/27 12:07:03;;;;;;;;;;;;;;;;;;5061214;28;19920;-75
2023/04/27 12:09:50;;;;;;;;;;;;;;;;;;5059866;28;19916;-76
2023/04/27 12:12:36;;;;;;;;;;;;;;;;;;5059185;28;19924;-75
2023/04/27 12:15:23;;;;;;;;;;;;;;;;;;5059610;28;19928;-75
2023/04/27 12:18:09;;;;;;;;;;;;;;;;;;5061438;28;19933;-76
2023/04/27 12:20:56;;;;;;;;;;;;;;;;;;5045299;28;20373;-75
2023/04/27 12:23:42;;;;;;;;;;;;;;;;;;5060995;28;20503;-76
2023/04/27 12:26:29;;;;;;;;;;;;;;;;;;5058502;28;19921;-76
2023/04/27 12:29:15;;;;;;;;;;;;;;;;;;5061698;28;19920;-75
2023/04/27 12:32:02;;;;;;;;;;;;;;;;;;5059838;28;19917;-76
2023/04/27 12:34:48;;;;;;;;;;;;;;;;;;5075720;28;19928;-75
2023/04/27 12:37:35;;;;;;;;;;;;;;;;;;5080013;28;20583;-76
2023/04/27 12:40:22;;;;;;;;;;;;;;;;;;5082787;28;19920;-74
2023/04/27 12:43:08;;;;;;;;;;;;;;;;;;5081465;28;19924;-75
2023/04/27 12:45:55;;;;;;;;;;;;;;;;;;5078595;28;20027;-74
2023/04/27 12:48:41;;;;;;;;;;;;;;;;;;5080978;28;19916;-77
2023/04/27 12:51:28;;;;;;;;;;;;;;;;;;5073815;28;19916;-78
2023/04/27 12:54:15;;;;;;;;;;;;;;;;;;5080993;28;20291;-78
2023/04/27 12:57:02;;;;;;;;;;;;;;;;;;5079807;28;19920;-77
2023/04/27 12:59:49;;;;;;;;;;;;;;;;;;5065247;28;19928;-76
2023/04/27 13:02:36;;;;;;;;;;;;;;;;;;5078748;28;19920;-75
2023/04/27 13:05:22;;;;;;;;;;;;;;;;;;5080464;28;20570;-76
2023/04/27 13:08:09;;;;;;;;;;;;;;;;;;5074781;28;19924;-76
2023/04/27 13:10:56;;;;;;;;;;;;;;;;;;5077254;28;19931;-75
2023/04/27 13:13:42;;;;;;;;;;;;;;;;;;5080090;28;20035;-75
2023/04/27 13:16:28;;;;;;;;;;;;;;;;;;5081993;28;19920;-76
2023/04/27 13:19:15;;;;;;;;;;;;;;;;;;5080476;28;20494;-76
2023/04/27 13:22:02;;;;;;;;;;;;;;;;;;5082611;28;19923;-75
2023/04/27 13:24:49;;;;;;;;;;;;;;;;;;5069590;28;19927;-76
2023/04/27 13:27:35;;;;;;;;;;;;;;;;;;5075126;28;19926;-76
2023/04/27 13:30:22;;;;;;;;;;;;;;;;;;5078184;28;19927;-76
2023/04/27 13:33:11;;;;;;;;;;;;;;;;;;5076101;28;20314;-75
2023/04/27 13:36:00;;;;;;;;;;;;;;;;;;5061568;28;20397;-76
2023/04/27 13:38:47;;;;;;;;;;;;;;;;;;5060982;28;19935;-76
2023/04/27 13:41:34;;;;;;;;;;;;;;;;;;5063318;28;19924;-76
2023/04/27 13:44:21;;;;;;;;;;;;;;;;;;5062021;28;20521;-78
2023/04/27 13:47:07;;;;;;;;;;;;;;;;;;5062445;28;19931;-80
2023/04/27 13:49:54;;;;;;;;;;;;;;;;;;5062331;28;19921;-75
2023/04/27 13:52:40;;;;;;;;;;;;;;;;;;5061777;28;19927;-76
2023/04/27 13:55:27;;;;;;;;;;;;;;;;;;5059633;28;19924;-76
2023/04/27 13:58:13;;;;;;;;;;;;;;;;;;5059821;28;20344;-76
2023/04/27 14:01:00;;;;;;;;;;;;;;;;;;5059648;28;20292;-76
2023/04/27 14:03:46;;;;;;;;;;;;;;;;;;5058230;28;19927;-76
2023/04/27 14:06:33;;;;;;;;;;;;;;;;;;5062110;28;20300;-76
2023/04/27 14:09:19;;;;;;;;;;;;;;;;;;5059834;28;19936;-76
2023/04/27 14:12:07;;;;;;;;;;;;;;;;;;5059155;28;19917;-76
2023/04/27 14:14:53;;;;;;;;;;;;;;;;;;5061268;28;20418;-77
2023/04/27 14:17:40;;;;;;;;;;;;;;;;;;5063529;28;19923;-76
2023/04/27 14:20:26;;;;;;;;;;;;;;;;;;5063257;28;19924;-76
2023/04/27 14:23:13;;;;;;;;;;;;;;;;;;5063342;28;19924;-75
2023/04/27 14:25:59;;;;;;;;;;;;;;;;;;5063232;28;19917;-75
2023/04/27 14:28:46;;;;;;;;;;;;;;;;;;5061972;28;19931;-75
2023/04/27 14:31:32;;;;;;;;;;;;;;;;;;5049869;28;19920;-75
2023/04/27 14:34:19;;;;;;;;;;;;;;;;;;5065198;28;20553;-76
2023/04/27 14:37:05;;;;;;;;;;;;;;;;;;5048780;28;19920;-76
2023/04/27 14:39:52;;;;;;;;;;;;;;;;;;5067308;28;19928;-76
2023/04/27 14:42:38;;;;;;;;;;;;;;;;;;5064723;28;19920;-76
2023/04/27 14:45:25;;;;;;;;;;;;;;;;;;5067205;27;19924;-77
2023/04/27 14:48:11;;;;;;;;;;;;;;;;;;5065546;28;20665;-76
2023/04/27 14:50:58;;;;;;;;;;;;;;;;;;5066610;28;19925;-76
2023/04/27 14:53:44;;;;;;;;;;;;;;;;;;5063932;28;19916;-76
2023/04/27 14:56:31;;;;;;;;;;;;;;;;;;5063318;28;20583;-75
2023/04/27 14:59:17;;;;;;;;;;;;;;;;;;5063547;28;19939;-76
2023/04/27 15:02:04;;;;;;;;;;;;;;;;;;5064817;28;19923;-76
2023/04/27 15:04:51;;;;;;;;;;;;;;;;;;5063573;28;19938;-76
2023/04/27 15:07:37;;;;;;;;;;;;;;;;;;5064352;28;19929;-76
2023/04/27 15:10:24;;;;;;;;;;;;;;;;;;5070271;28;19927;-75
2023/04/27 15:13:11;;;;;;;;;;;;;;;;;;5064070;28;19917;-77
2023/04/27 15:15:57;;;;;;;;;;;;;;;;;;5065708;28;19920;-76
2023/04/27 15:18:43;;;;;;;;;;;;;;;;;;5061248;28;19947;-77
2023/04/27 15:21:31;;;;;;;;;;;;;;;;;;5061523;28;19935;-77
2023/04/27 15:24:17;;;;;;;;;;;;;;;;;;5047687;28;19916;-76
2023/04/27 15:27:04;;;;;;;;;;;;;;;;;;5064618;28;19927;-76
2023/04/27 15:29:50;;;;;;;;;;;;;;;;;;5065400;28;19916;-80
2023/04/27 15:32:37;;;;;;;;;;;;;;;;;;5063326;28;19921;-78
2023/04/27 15:35:23;;;;;;;;;;;;;;;;;;5065889;28;19923;-74
2023/04/27 15:38:10;;;;;;;;;;;;;;;;;;5059864;28;20688;-74
2023/04/27 15:40:56;;;;;;;;;;;;;;;;;;5059198;28;19927;-75
2023/04/27 15:43:43;;;;;;;;;;;;;;;;;;5060646;28;19924;-75
2023/04/27 15:46:29;;;;;;;;;;;;;;;;;;5062492;28;19920;-75
2023/04/27 15:49:15;;;;;;;;;;;;;;;;;;5049850;28;20380;-75
2023/04/27 15:52:02;;;;;;;;;;;;;;;;;;5061671;28;19921;-75
2023/04/27 15:54:49;;;;;;;;;;;;;;;;;;5062602;28;20369;-75
2023/04/27 15:57:35;;;;;;;;;;;;;;;;;;5060501;28;19920;-75
2023/04/27 16:00:22;;;;;;;;;;;;;;;;;;5061762;28;19938;-75
2023/04/27 16:03:09;;;;;;;;;;;;;;;;;;5061315;28;19916;-75
2023/04/27 16:05:55;;;;;;;;;;;;;;;;;;5062655;28;19920;-76
2023/04/27 16:08:42;;;;;;;;;;;;;;;;;;5060488;28;19932;-75
2023/04/27 16:11:28;;;;;;;;;;;;;;;;;;5062391;28;19924;-76
2023/04/27 16:14:15;;;;;;;;;;;;;;;;;;5061153;28;19994;-75
2023/04/27 16:17:01;;;;;;;;;;;;;;;;;;5062400;28;19920;-75
2023/04/27 16:19:48;;;;;;;;;;;;;;;;;;5045090;28;19933;-76
2023/04/27 16:22:34;;;;;;;;;;;;;;;;;;5061346;28;19928;-75
2023/04/27 16:25:21;;;;;;;;;;;;;;;;;;5058616;28;20501;-74
2023/04/27 16:28:07;;;;;;;;;;;;;;;;;;5047484;28;19920;-75
2023/04/27 16:30:54;;;;;;;;;;;;;;;;;;5059982;28;19916;-76
2023/04/27 16:33:40;;;;;;;;;;;;;;;;;;5060400;28;19939;-75
2023/04/27 16:36:27;;;;;;;;;;;;;;;;;;5058515;28;19927;-75
2023/04/27 16:39:14;;;;;;;;;;;;;;;;;;5054699;28;19939;-75
2023/04/27 16:42:00;;;;;;;;;;;;;;;;;;5058746;28;19920;-74
2023/04/27 16:44:47;;;;;;;;;;;;;;;;;;5062131;28;19920;-75
2023/04/27 16:47:33;;;;;;;;;;;;;;;;;;5057592;28;19916;-77
2023/04/27 16:50:20;;;;;;;;;;;;;;;;;;5063635;28;19927;-77
2023/04/27 16:53:06;;;;;;;;;;;;;;;;;;5057636;28;20394;-75
2023/04/27 16:55:53;;;;;;;;;;;;;;;;;;5056627;28;20477;-75
2023/04/27 16:58:39;;;;;;;;;;;;;;;;;;5044042;28;19931;-75
2023/04/27 17:01:28;;;;;;;;;;;;;;;;;;5061604;28;19920;-75
2023/04/27 17:04:15;;;;;;;;;;;;;;;;;;5038968;28;19924;-75
2023/04/27 17:07:01;;;;;;;;;;;;;;;;;;5034304;28;20270;-76
2023/04/27 17:09:48;;;;;;;;;;;;;;;;;;5018505;28;21291;-77
2023/04/27 17:12:34;;;;;;;;;;;;;;;;;;5047819;28;19926;-77
2023/04/27 17:15:21;;;;;;;;;;;;;;;;;;5062760;28;20283;-76
2023/04/27 17:18:08;;;;;;;;;;;;;;;;;;5056959;28;19924;-75
2023/04/27 17:20:55;;;;;;;;;;;;;;;;;;5063164;28;20575;-76
2023/04/27 17:23:41;;;;;;;;;;;;;;;;;;5061537;28;19938;-75
2023/04/27 17:26:28;;;;;;;;;;;;;;;;;;5061026;28;19921;-77
2023/04/27 17:29:15;;;;;;;;;;;;;;;;;;5060936;28;19923;-77
2023/04/27 17:32:01;;;;;;;;;;;;;;;;;;5028989;28;20273;-78
2023/04/27 17:34:48;;;;;;;;;;;;;;;;;;5080545;28;19932;-76
2023/04/27 17:37:35;;;;;;;;;;;;;;;;;;5081544;28;20319;-74
2023/04/27 17:40:21;;;;;;;;;;;;;;;;;;5082323;28;19928;-75
2023/04/27 17:43:08;;;;;;;;;;;;;;;;;;5060415;28;20285;-75
2023/04/27 17:45:54;;;;;;;;;;;;;;;;;;5056526;28;19916;-74
2023/04/27 17:48:41;;;;;;;;;;;;;;;;;;5063206;28;19913;-75
2023/04/27 17:51:28;;;;;;;;;;;;;;;;;;5077716;28;19920;-78
2023/04/27 17:54:14;;;;;;;;;;;;;;;;;;5079522;28;20240;-74
2023/04/27 17:57:01;;;;;;;;;;;;;;;;;;5078908;28;20299;-75
2023/04/27 17:59:48;;;;;;;;;;;;;;;;;;5083518;28;19928;-74
2023/04/27 18:02:35;;;;;;;;;;;;;;;;;;5083450;28;19925;-75
2023/04/27 18:05:21;;;;;;;;;;;;;;;;;;5084244;28;20761;-74
2023/04/27 18:08:08;;;;;;;;;;;;;;;;;;5078712;28;19928;-75
2023/04/27 18:10:55;;;;;;;;;;;;;;;;;;5083092;28;19916;-75
2023/04/27 18:13:41;;;;;;;;;;;;;;;;;;5076104;28;20273;-75
2023/04/27 18:16:28;;;;;;;;;;;;;;;;;;5069113;28;20403;-75
2023/04/27 18:19:14;;;;;;;;;;;;;;;;;;5071963;28;19931;-75
2023/04/27 18:22:01;;;;;;;;;;;;;;;;;;5082125;28;20384;-75
2023/04/27 18:24:47;;;;;;;;;;;;;;;;;;5083244;28;19921;-74
2023/04/27 18:27:36;;;;;;;;;;;;;;;;;;5073238;28;19927;-75
2023/04/27 18:30:23;;;;;;;;;;;;;;;;;;5081489;28;19942;-75
2023/04/27 18:33:10;;;;;;;;;;;;;;;;;;5084203;28;19930;-74
2023/04/27 18:35:56;;;;;;;;;;;;;;;;;;5084781;28;20038;-75
2023/04/27 18:38:43;;;;;;;;;;;;;;;;;;5082504;28;19928;-75
2023/04/27 18:41:29;;;;;;;;;;;;;;;;;;5083378;28;20362;-76
2023/04/27 18:44:16;;;;;;;;;;;;;;;;;;5084986;28;19927;-76
2023/04/27 18:47:02;;;;;;;;;;;;;;;;;;5074440;28;19920;-75
2023/04/27 18:49:49;;;;;;;;;;;;;;;;;;5076950;28;19920;-76
2023/04/27 18:52:36;;;;;;;;;;;;;;;;;;5069363;28;20276;-76
2023/04/27 18:55:22;;;;;;;;;;;;;;;;;;5085580;28;20322;-76
2023/04/27 18:58:09;;;;;;;;;;;;;;;;;;5080887;28;19920;-75